KBPG/BPG METAR and TAF weather

Enter ICAO airport designator
Station Type Date Time Source
KBPG METAR 2022/01/25 05:15 UTC NOAA

KBPG 250515Z AUTO 14005KT 10SM CLR 08/M03 A2991 RMK AO2 T00751029


Station Type Date Time Source
KBPG Decoded METAR 2022/01/25 05:15 UTC NOAA

Big Spring, Big Spring McMahon-Wrinkle Airport, TX, United States (KBPG) 32-12N 101-31W
Jan 25, 2022 - 12:15 AM EST / 2022.01.25 0515 UTC
Wind: from the SE (140 degrees) at 6 MPH (5 KT):0
Visibility: 10 mile(s):0
Sky conditions: clear
Temperature: 45.5 F (7.5 C)
Dew Point: 26.8 F (-2.9 C)
Relative Humidity: 47%
Pressure (altimeter): 29.91 in. Hg (1012 hPa)
ob: KBPG 250515Z AUTO 14005KT 10SM CLR 08/M03 A2991 RMK AO2 T00751029
cycle: 5

Station Type Date Time Source
KBPG TAF UTC NOAA

Error!

Example: see airport list